Time;durP1;ratioP1;P1;durP2;ratioP2;P2;SDS_P1;SDS_P2;PMS_P1;PMS_P2;Temp;Humidity;BMP_temperature;BMP_pressure;BME280_temperature;BME280_humidity;BME280_pressure;Samples;Min_cycle;Max_cycle;Signal;HPM_P1;HPM_P2
2022/11/07 00:00:11;;;;;;;8.60;1.30;;;15.80;99.90;;;;;;5069074;28;20418;-74
2022/11/07 00:02:37;;;;;;;5.72;1.35;;;15.80;99.90;;;;;;5047783;28;20032;-73
2022/11/07 00:05:05;;;;;;;8.45;1.50;;;15.80;99.90;;;;;;5068302;28;20037;-68
2022/11/07 00:07:31;;;;;;;8.23;1.80;;;15.70;99.90;;;;;;5054141;28;20028;-71
2022/11/07 00:09:57;;;;;;;6.83;1.90;;;15.60;99.90;;;;;;5063104;28;20473;-73
2022/11/07 00:12:23;;;;;;;9.77;2.20;;;15.60;99.90;;;;;;5050972;28;20049;-72
2022/11/07 00:14:49;;;;;;;11.03;2.57;;;15.50;99.90;;;;;;5066379;28;20032;-72
2022/11/07 00:17:17;;;;;;;5.10;1.95;;;15.50;99.90;;;;;;5068139;28;20274;-73
2022/11/07 00:19:43;;;;;;;6.22;1.92;;;15.40;99.90;;;;;;5070665;28;20165;-72
2022/11/07 00:22:09;;;;;;;8.90;1.77;;;15.40;99.90;;;;;;5074640;28;20162;-73
2022/11/07 00:24:35;;;;;;;3.77;1.40;;;15.40;99.90;;;;;;5056511;28;20084;-70
2022/11/07 00:27:01;;;;;;;7.35;1.63;;;15.40;99.90;;;;;;5052245;28;20263;-72
2022/11/07 00:29:27;;;;;;;10.68;1.52;;;15.50;99.90;;;;;;5051890;28;20124;-72
2022/11/07 00:31:53;;;;;;;13.63;2.03;;;15.60;99.90;;;;;;5069661;28;20040;-72
2022/11/07 00:34:19;;;;;;;9.10;2.10;;;15.60;99.90;;;;;;5072041;28;20600;-73
2022/11/07 00:36:45;;;;;;;6.63;2.10;;;15.50;99.90;;;;;;5072326;28;20032;-73
2022/11/07 00:39:11;;;;;;;9.25;2.58;;;15.40;99.90;;;;;;5071917;28;20029;-71
2022/11/07 00:41:39;;;;;;;6.27;2.00;;;15.30;99.90;;;;;;5072003;28;20023;-72
2022/11/07 00:44:05;;;;;;;11.77;2.72;;;15.30;99.90;;;;;;5072052;28;20032;-72
2022/11/07 00:46:31;;;;;;;5.70;1.70;;;15.30;99.90;;;;;;5071357;28;20055;-73
2022/11/07 00:48:58;;;;;;;6.38;1.73;;;15.20;99.90;;;;;;5071551;28;20047;-73
2022/11/07 00:51:26;;;;;;;7.33;2.03;;;15.30;99.90;;;;;;5071607;28;20056;-72
2022/11/07 00:53:52;;;;;;;7.97;2.00;;;15.30;99.90;;;;;;5071694;28;20254;-74
2022/11/07 00:56:23;;;;;;;6.20;1.80;;;15.30;99.90;;;;;;5053464;28;20070;-73
2022/11/07 00:58:55;;;;;;;7.28;1.70;;;15.40;99.90;;;;;;5071837;28;20313;-72
2022/11/07 01:01:24;;;;;;;8.95;2.00;;;15.40;99.90;;;;;;5071290;28;20052;-71
2022/11/07 01:06:37;;;;;;;6.30;1.60;;;15.30;99.90;;;;;;5070968;28;20512;-71
2022/11/07 01:09:06;;;;;;;8.43;1.88;;;15.30;99.90;;;;;;5071260;28;20040;-73
2022/11/07 01:11:32;;;;;;;9.23;2.00;;;15.30;99.90;;;;;;5070719;28;20078;-72
2022/11/07 01:14:00;;;;;;;7.18;1.70;;;15.20;99.90;;;;;;5070679;28;20020;-71
2022/11/07 01:16:28;;;;;;;5.05;1.10;;;15.20;99.90;;;;;;5070941;28;20025;-71
2022/11/07 01:18:54;;;;;;;7.45;1.38;;;15.20;99.90;;;;;;5070730;28;20020;-71
2022/11/07 01:21:21;;;;;;;6.72;1.50;;;15.30;99.90;;;;;;5070790;28;20409;-71
2022/11/07 01:23:47;;;;;;;7.63;1.95;;;15.30;99.90;;;;;;5070506;28;20358;-71
2022/11/07 01:26:14;;;;;;;7.32;1.27;;;15.30;99.90;;;;;;5070429;28;20043;-72
2022/11/07 01:28:41;;;;;;;4.90;1.02;;;15.20;99.90;;;;;;5069737;28;20056;-73
2022/11/07 01:31:12;;;;;;;4.93;1.08;;;15.20;99.90;;;;;;5070310;28;20036;-71
2022/11/07 01:33:39;;;;;;;4.35;1.10;;;15.20;99.90;;;;;;5071013;28;20032;-72
2022/11/07 01:36:13;;;;;;;7.28;1.50;;;15.30;99.90;;;;;;5070407;28;20025;-72
2022/11/07 01:38:42;;;;;;;6.60;1.05;;;15.20;99.90;;;;;;5070489;28;20032;-70
2022/11/07 01:41:21;;;;;;;11.05;1.55;;;15.10;99.90;;;;;;5070318;28;20017;-71
2022/11/07 01:43:59;;;;;;;5.55;1.23;;;15.20;99.90;;;;;;5070224;28;20051;-72
2022/11/07 01:46:31;;;;;;;6.55;1.40;;;15.10;99.90;;;;;;5070251;28;20052;-72
2022/11/07 01:48:59;;;;;;;6.40;1.30;;;15.10;99.90;;;;;;5070774;28;20317;-71
2022/11/07 01:51:26;;;;;;;4.78;1.50;;;15.00;99.90;;;;;;5070373;28;20036;-73
2022/11/07 01:53:54;;;;;;;3.72;1.10;;;15.00;99.90;;;;;;5070307;28;20024;-73
2022/11/07 01:56:25;;;;;;;7.53;1.35;;;15.00;99.90;;;;;;5070341;28;20449;-72
2022/11/07 01:58:59;;;;;;;9.77;1.30;;;15.10;99.90;;;;;;5070560;28;20127;-68
2022/11/07 02:01:25;;;;;;;5.47;1.27;;;15.00;99.90;;;;;;5070307;28;20037;-72
2022/11/07 02:03:53;;;;;;;3.92;1.15;;;15.00;99.90;;;;;;5070148;28;20096;-73
2022/11/07 02:06:46;;;;;;;4.03;1.05;;;15.00;99.90;;;;;;5052308;28;20075;-72
2022/11/07 02:09:13;;;;;;;4.80;1.10;;;15.00;99.90;;;;;;5070246;28;20103;-72
2022/11/07 02:11:40;;;;;;;4.55;1.23;;;15.00;99.90;;;;;;5052726;28;20028;-72
2022/11/07 02:14:06;;;;;;;3.70;1.10;;;15.00;99.90;;;;;;5070148;28;20031;-72
2022/11/07 02:16:34;;;;;;;5.05;1.00;;;15.00;99.90;;;;;;5070825;28;20412;-72
2022/11/07 02:19:04;;;;;;;7.03;1.10;;;15.00;99.90;;;;;;5051840;28;20079;-71
2022/11/07 02:21:36;;;;;;;6.88;1.35;;;15.00;99.90;;;;;;5070189;28;20023;-72
2022/11/07 02:24:08;;;;;;;5.32;1.35;;;15.10;99.90;;;;;;5069821;28;20074;-72
2022/11/07 02:26:37;;;;;;;3.33;1.10;;;15.10;99.90;;;;;;5069826;28;20035;-71
2022/11/07 02:29:09;;;;;;;5.88;1.00;;;15.10;99.90;;;;;;5070272;28;20031;-71
2022/11/07 02:31:36;;;;;;;3.70;1.05;;;15.10;99.90;;;;;;5070144;28;20090;-73
2022/11/07 02:34:03;;;;;;;;;;;15.00;99.90;;;;;;5070745;28;20040;-68
2022/11/07 02:36:29;;;;;;;6.05;1.00;;;15.10;99.90;;;;;;5069993;28;19904;-72
2022/11/07 02:38:58;;;;;;;5.82;1.02;;;15.20;99.90;;;;;;5069761;28;20111;-70
2022/11/07 02:41:34;;;;;;;5.80;1.20;;;15.20;99.90;;;;;;5073353;28;20040;-71
2022/11/07 02:44:06;;;;;;;2.53;1.02;;;15.10;99.90;;;;;;5073591;28;20052;-72
2022/11/07 02:46:32;;;;;;;6.20;1.00;;;15.10;99.90;;;;;;5073155;28;20469;-71
2022/11/07 02:49:00;;;;;;;2.40;0.80;;;15.10;99.90;;;;;;5073203;28;20021;-72
2022/11/07 02:51:28;;;;;;;3.30;0.90;;;15.10;99.90;;;;;;5073060;28;20146;-71
2022/11/07 02:53:54;;;;;;;4.93;0.82;;;15.10;99.90;;;;;;5073492;28;20417;-70
2022/11/07 02:56:21;;;;;;;2.88;0.80;;;15.20;99.90;;;;;;5073452;28;20082;-72
2022/11/07 02:58:48;;;;;;;3.55;0.90;;;15.20;99.90;;;;;;5073524;28;20130;-71
2022/11/07 03:01:15;;;;;;;4.97;0.93;;;15.10;99.90;;;;;;5073021;28;20060;-71
2022/11/07 03:03:45;;;;;;;9.18;1.00;;;15.10;99.90;;;;;;5055304;28;20044;-72
2022/11/07 03:06:16;;;;;;;2.88;0.88;;;15.10;99.90;;;;;;5054438;28;20040;-71
2022/11/07 03:08:42;;;;;;;4.35;0.90;;;15.20;99.90;;;;;;5073039;28;20033;-70
2022/11/07 03:11:11;;;;;;;2.00;0.60;;;15.20;99.90;;;;;;5072958;28;20445;-72
2022/11/07 03:13:38;;;;;;;2.47;0.60;;;15.20;99.90;;;;;;5072862;28;20107;-70
2022/11/07 03:16:07;;;;;;;7.10;0.95;;;15.10;99.90;;;;;;5072674;28;20063;-72
2022/11/07 03:18:36;;;;;;;2.65;0.80;;;15.20;99.90;;;;;;5072972;28;20097;-72
2022/11/07 03:21:03;;;;;;;3.83;0.80;;;15.20;99.90;;;;;;5072590;28;20025;-72
2022/11/07 03:23:30;;;;;;;6.22;1.02;;;15.20;99.90;;;;;;5054247;28;20064;-72
2022/11/07 03:25:56;;;;;;;2.80;0.70;;;15.20;99.90;;;;;;5072814;28;20025;-72
2022/11/07 03:28:24;;;;;;;5.97;1.00;;;15.30;99.90;;;;;;5072468;28;20327;-68
2022/11/07 03:30:51;;;;;;;2.13;0.55;;;15.30;99.90;;;;;;5072534;28;20028;-72
2022/11/07 03:33:17;;;;;;;6.60;0.93;;;15.30;99.90;;;;;;5072401;28;20486;-72
2022/11/07 03:35:43;;;;;;;4.03;0.98;;;15.30;99.90;;;;;;5073488;28;20345;-72
2022/11/07 03:38:11;;;;;;;1.95;0.65;;;15.30;99.90;;;;;;5073384;28;20089;-71
2022/11/07 03:40:38;;;;;;;3.25;0.70;;;15.40;99.90;;;;;;5072862;28;20365;-72
2022/11/07 03:43:04;;;;;;;5.47;0.93;;;15.40;99.90;;;;;;5072689;28;20464;-71
2022/11/07 03:45:32;;;;;;;4.00;0.70;;;15.40;99.90;;;;;;5072039;28;20041;-72
2022/11/07 03:47:59;;;;;;;5.00;0.73;;;15.40;99.90;;;;;;5072536;28;20020;-73
2022/11/07 03:50:25;;;;;;;2.33;0.60;;;15.40;99.90;;;;;;5054299;28;20425;-71
2022/11/07 03:52:52;;;;;;;5.93;0.90;;;15.40;99.90;;;;;;5070869;28;20097;-72
2022/11/07 03:55:18;;;;;;;3.03;0.55;;;15.40;99.90;;;;;;5071651;28;20036;-72
2022/11/07 03:57:45;;;;;;;3.53;0.70;;;15.40;99.90;;;;;;5054208;28;20496;-70
2022/11/07 04:00:12;;;;;;;3.30;0.73;;;15.40;99.90;;;;;;5072099;28;20021;-72
2022/11/07 04:02:39;;;;;;;1.52;0.50;;;15.40;99.90;;;;;;5071927;28;20032;-73
2022/11/07 04:05:05;;;;;;;5.97;0.80;;;15.40;99.90;;;;;;5072056;28;20050;-70
2022/11/07 04:07:31;;;;;;;3.00;0.80;;;15.40;99.90;;;;;;5072923;28;20499;-71
2022/11/07 04:09:57;;;;;;;1.97;0.73;;;15.40;99.90;;;;;;5073118;28;20068;-73
2022/11/07 04:17:54;;;;;;;2.25;0.50;;;15.50;99.90;;;;;;5072860;28;20027;-71
2022/11/07 04:20:20;;;;;;;3.85;0.70;;;15.50;99.90;;;;;;5072925;28;20024;-72
2022/11/07 04:22:46;;;;;;;7.57;0.97;;;15.40;99.90;;;;;;5072985;28;20024;-70
2022/11/07 04:25:13;;;;;;;5.83;1.10;;;15.50;99.90;;;;;;5073429;28;20041;-72
2022/11/07 04:27:42;;;;;;;4.32;0.85;;;15.50;99.90;;;;;;5073233;28;20034;-71
2022/11/07 04:30:29;;;;;;;6.78;0.85;;;15.50;99.90;;;;;;5073381;28;20025;-72
2022/11/07 04:32:58;;;;;;;2.85;0.70;;;15.40;99.90;;;;;;5072215;28;20040;-73
2022/11/07 04:35:29;;;;;;;2.45;0.70;;;15.40;99.90;;;;;;5072958;28;20035;-72
2022/11/07 04:37:55;;;;;;;6.38;0.82;;;15.40;99.90;;;;;;5073203;28;20457;-71
2022/11/07 04:40:23;;;;;;;5.80;0.88;;;15.40;99.90;;;;;;5072923;28;20025;-72
2022/11/07 04:42:49;;;;;;;4.35;0.70;;;15.40;99.90;;;;;;5073176;28;20097;-72
2022/11/07 04:45:16;;;;;;;7.38;0.77;;;15.40;99.90;;;;;;5034683;28;20048;-72
2022/11/07 04:47:42;;;;;;;2.30;0.80;;;15.40;99.90;;;;;;5052582;28;20025;-71
2022/11/07 04:50:11;;;;;;;2.58;0.93;;;15.40;99.90;;;;;;5052677;28;20111;-72
2022/11/07 04:52:38;;;;;;;2.72;0.77;;;15.40;99.90;;;;;;5052544;28;20032;-73
2022/11/07 04:55:08;;;;;;;3.83;0.90;;;15.40;99.90;;;;;;5034585;28;20626;-71
2022/11/07 04:57:35;;;;;;;4.13;0.80;;;15.30;99.90;;;;;;5053094;28;20043;-69
2022/11/07 05:00:03;;;;;;;2.42;0.68;;;15.20;99.90;;;;;;5051046;28;20030;-72
2022/11/07 05:02:29;;;;;;;6.50;0.90;;;15.30;99.90;;;;;;5034773;28;20029;-70
2022/11/07 05:04:57;;;;;;;6.23;1.13;;;15.20;99.90;;;;;;5042804;28;20049;-70
2022/11/07 05:07:23;;;;;;;3.40;0.70;;;15.30;99.90;;;;;;5041108;28;20013;-68
2022/11/07 05:09:50;;;;;;;4.13;1.08;;;15.20;99.90;;;;;;5040617;28;20361;-70
2022/11/07 05:12:16;;;;;;;5.80;0.83;;;15.20;99.90;;;;;;5038710;28;20108;-70
2022/11/07 05:14:42;;;;;;;1.90;0.60;;;15.20;99.90;;;;;;5054684;28;20104;-71
2022/11/07 05:17:13;;;;;;;6.60;0.83;;;15.20;99.90;;;;;;5049963;28;20304;-73
2022/11/07 05:19:44;;;;;;;6.88;0.80;;;15.20;99.90;;;;;;5067065;28;20634;-71
2022/11/07 05:24:57;;;;;;;3.50;0.70;;;15.30;99.90;;;;;;5031660;28;20033;-71
2022/11/07 05:27:24;;;;;;;5.63;1.00;;;15.30;99.90;;;;;;5063358;28;20057;-73
2022/11/07 05:29:50;;;;;;;;;;;15.30;99.90;;;;;;5053358;28;20037;-73
2022/11/07 05:32:16;;;;;;;2.67;0.60;;;15.30;99.90;;;;;;5052893;28;19916;-72
2022/11/07 05:34:43;;;;;;;4.20;0.85;;;15.40;99.90;;;;;;5053461;28;20178;-72
2022/11/07 05:37:10;;;;;;;3.22;0.73;;;15.40;99.90;;;;;;5051609;28;20391;-73
2022/11/07 05:39:36;;;;;;;2.35;0.68;;;15.40;99.90;;;;;;5053175;28;20103;-72
2022/11/07 05:42:04;;;;;;;4.32;0.77;;;15.40;99.90;;;;;;5053125;28;20020;-72
2022/11/07 05:44:31;;;;;;;4.93;0.82;;;15.40;99.90;;;;;;5053312;28;20040;-73
2022/11/07 05:46:57;;;;;;;6.03;0.70;;;15.40;99.90;;;;;;5073182;28;20032;-73
2022/11/07 05:49:24;;;;;;;8.20;1.50;;;15.40;99.90;;;;;;5072285;28;20033;-74
2022/11/07 05:51:51;;;;;;;6.25;1.42;;;15.40;99.90;;;;;;5071159;28;20472;-74
2022/11/07 05:54:17;;;;;;;7.35;1.40;;;15.40;99.90;;;;;;5085651;28;20029;-72
2022/11/07 05:56:44;;;;;;;;;;;15.50;99.90;;;;;;5073237;28;20056;-74
2022/11/07 05:59:10;;;;;;;5.15;0.60;;;15.50;99.90;;;;;;5073014;28;19904;-74
2022/11/07 06:01:36;;;;;;;6.05;0.70;;;15.70;99.90;;;;;;5054429;28;20082;-74
2022/11/07 06:04:06;;;;;;;4.15;0.70;;;16.30;99.90;;;;;;5076647;28;20064;-72
2022/11/07 06:06:33;;;;;;;3.40;0.82;;;17.10;99.90;;;;;;5087850;28;20025;-73
2022/11/07 06:08:59;;;;;;;4.55;0.70;;;18.00;99.90;;;;;;5092117;28;20022;-73
2022/11/07 06:11:25;;;;;;;2.40;0.77;;;19.10;99.90;;;;;;5074270;28;20028;-71
2022/11/07 06:13:53;;;;;;;4.85;0.93;;;20.00;99.90;;;;;;5091846;28;20077;-73
2022/11/07 06:16:19;;;;;;;3.88;0.73;;;21.00;99.90;;;;;;5095574;28;20125;-73
2022/11/07 06:18:45;;;;;;;6.53;1.17;;;21.60;99.90;;;;;;5096395;28;20024;-72
2022/11/07 06:21:12;;;;;;;9.88;0.95;;;22.70;99.90;;;;;;5096637;28;20024;-73
2022/11/07 06:23:38;;;;;;;3.40;1.05;;;23.60;99.90;;;;;;5077978;28;20054;-73
2022/11/07 06:26:05;;;;;;;5.97;1.10;;;24.40;99.90;;;;;;5096461;28;20028;-74
2022/11/07 06:28:35;;;;;;;4.25;0.90;;;25.10;99.90;;;;;;5077583;28;20024;-74
2022/11/07 06:31:02;;;;;;;5.00;1.20;;;25.90;99.90;;;;;;5095415;28;20028;-73
2022/11/07 06:33:28;;;;;;;3.10;1.08;;;26.10;99.90;;;;;;5095578;28;20542;-74
2022/11/07 06:35:55;;;;;;;3.00;1.10;;;26.70;99.90;;;;;;5095266;28;20020;-73
2022/11/07 06:38:23;;;;;;;4.10;1.42;;;26.80;99.90;;;;;;5095184;28;20027;-73
2022/11/07 06:40:51;;;;;;;6.53;1.00;;;27.20;99.90;;;;;;5095238;28;20102;-74
2022/11/07 06:43:18;;;;;;;5.03;0.85;;;27.60;99.90;;;;;;5076787;28;20039;-73
2022/11/07 06:45:46;;;;;;;6.68;0.80;;;27.40;99.90;;;;;;5072875;28;20143;-74
2022/11/07 06:48:14;;;;;;;6.88;1.00;;;27.00;99.90;;;;;;5039731;28;20120;-73
2022/11/07 06:50:41;;;;;;;5.32;0.68;;;27.30;99.90;;;;;;5075057;28;20031;-75
2022/11/07 06:53:10;;;;;;;4.40;1.25;;;26.40;99.90;;;;;;5055823;28;20112;-77
2022/11/07 06:55:37;;;;;;;5.70;1.25;;;26.90;99.90;;;;;;5073708;28;20017;-79
2022/11/07 06:58:03;;;;;;;5.50;1.20;;;26.90;99.90;;;;;;5072987;28;20050;-78
2022/11/07 07:00:32;;;;;;;4.70;1.13;;;26.90;99.90;;;;;;5053673;28;20095;-82
2022/11/07 07:02:58;;;;;;;4.70;1.10;;;27.20;99.90;;;;;;5057444;28;20043;-89
2022/11/07 07:05:25;;;;;;;7.20;1.38;;;27.30;99.90;;;;;;5055734;28;20041;-87
2022/11/07 07:07:54;;;;;;;5.95;1.45;;;27.90;99.90;;;;;;5056553;28;20040;-80
2022/11/07 07:10:20;;;;;;;5.95;1.10;;;28.80;99.90;;;;;;5053636;28;20147;-77
2022/11/07 07:12:45;;;;;;;;;;;29.40;99.90;;;;;;5065557;28;20045;-77
2022/11/07 07:15:11;;;;;;;7.05;0.80;;;29.40;99.90;;;;;;5074231;28;19908;-78
2022/11/07 07:17:38;;;;;;;4.68;0.90;;;29.70;99.90;;;;;;5074075;28;20032;-77
2022/11/07 07:20:04;;;;;;;;;;;30.00;99.90;;;;;;5074103;28;20025;-79
2022/11/07 07:22:30;;;;;;;4.05;0.80;;;28.50;99.90;;;;;;5074373;28;19905;-78
2022/11/07 07:24:56;;;;;;;8.90;1.40;;;28.70;99.90;;;;;;5074077;28;20043;-78
2022/11/07 07:27:23;;;;;;;2.78;0.80;;;28.60;99.90;;;;;;5061279;28;20024;-80
2022/11/07 07:29:52;;;;;;;5.32;1.00;;;27.30;99.90;;;;;;5054375;28;20028;-79
2022/11/07 07:32:19;;;;;;;5.32;1.00;;;26.50;99.90;;;;;;5054081;28;20020;-77
2022/11/07 07:34:45;;;;;;;7.03;0.90;;;25.90;99.90;;;;;;5036139;28;20032;-75
2022/11/07 07:37:11;;;;;;;5.03;1.02;;;24.60;99.90;;;;;;5053990;28;20100;-78
2022/11/07 07:39:37;;;;;;;3.88;1.00;;;24.10;99.90;;;;;;5054171;28;20033;-81
2022/11/07 07:42:03;;;;;;;7.47;1.13;;;23.60;99.90;;;;;;5052165;28;20021;-80
2022/11/07 07:44:29;;;;;;;4.40;1.10;;;23.50;99.90;;;;;;5055704;28;20037;-80
2022/11/07 07:46:55;;;;;;;4.28;0.90;;;23.50;99.90;;;;;;5070454;28;20110;-79
2022/11/07 07:49:21;;;;;;;4.32;0.70;;;23.50;99.90;;;;;;5053898;28;20052;-78
2022/11/07 07:51:48;;;;;;;4.50;0.80;;;23.40;99.90;;;;;;5053978;28;20442;-77
2022/11/07 07:54:14;;;;;;;4.75;0.80;;;23.10;99.90;;;;;;5054073;28;20029;-78
2022/11/07 07:56:40;;;;;;;6.15;0.90;;;23.20;99.90;;;;;;5053536;28;20025;-77
2022/11/07 07:59:06;;;;;;;6.53;1.05;;;22.90;99.90;;;;;;5053770;28;20043;-78
2022/11/07 08:01:32;;;;;;;5.68;1.10;;;22.60;99.90;;;;;;5053294;28;20041;-78
2022/11/07 08:04:01;;;;;;;5.13;0.90;;;22.60;99.90;;;;;;5053497;28;20111;-79
2022/11/07 08:06:27;;;;;;;7.00;1.00;;;22.30;99.90;;;;;;5053835;28;20485;-80
2022/11/07 08:08:53;;;;;;;3.67;1.10;;;22.30;99.90;;;;;;5035678;28;20357;-82
2022/11/07 08:11:19;;;;;;;7.47;1.08;;;22.10;99.90;;;;;;5053699;28;20108;-83
2022/11/07 08:13:45;;;;;;;4.25;1.55;;;22.20;99.90;;;;;;5053505;28;20060;-81
2022/11/07 08:16:11;;;;;;;6.53;1.00;;;22.20;99.90;;;;;;5053669;28;20028;-82
2022/11/07 08:18:40;;;;;;;5.93;0.90;;;21.90;99.90;;;;;;5056711;28;20028;-83
2022/11/07 08:21:06;;;;;;;5.28;0.77;;;21.40;99.90;;;;;;5073350;28;20097;-80
2022/11/07 08:23:33;;;;;;;5.07;0.80;;;20.90;99.90;;;;;;5073527;28;20086;-80
2022/11/07 08:26:01;;;;;;;6.93;1.02;;;20.90;99.90;;;;;;5055047;28;20036;-85
2022/11/07 08:28:29;;;;;;;4.47;1.00;;;20.90;99.90;;;;;;5073289;28;20017;-81
2022/11/07 08:31:10;;;;;;;5.93;0.90;;;21.00;99.90;;;;;;5055450;28;20663;-88
2022/11/07 08:33:38;;;;;;;8.90;1.10;;;21.10;99.90;;;;;;5055239;28;20021;-85
2022/11/07 08:36:06;;;;;;;3.45;0.93;;;21.00;99.90;;;;;;5073037;28;20024;-80
2022/11/07 08:38:34;;;;;;;10.23;1.00;;;20.90;99.90;;;;;;5038024;28;20055;-85
2022/11/07 08:41:01;;;;;;;4.82;0.90;;;20.90;99.90;;;;;;5073142;28;20033;-85
2022/11/07 08:43:27;;;;;;;;;;;20.70;99.90;;;;;;5073099;28;20078;-85
2022/11/07 08:45:54;;;;;;;4.95;0.80;;;21.00;99.90;;;;;;5087092;23;20430;-86
2022/11/07 08:48:25;;;;;;;5.43;0.93;;;20.80;99.90;;;;;;5093163;28;20388;-87
2022/11/07 08:51:12;;;;;;;4.57;1.40;;;20.80;99.90;;;;;;5092965;28;20081;-84
2022/11/07 08:53:38;;;;;;;5.85;0.90;;;21.00;99.90;;;;;;5093440;28;20032;-84
2022/11/07 08:56:10;;;;;;;6.60;1.60;;;21.40;99.90;;;;;;5093102;28;20024;-83
2022/11/07 08:58:41;;;;;;;7.55;1.10;;;21.20;99.90;;;;;;5092781;28;20016;-87
2022/11/07 09:01:10;;;;;;;5.97;1.33;;;21.20;99.90;;;;;;5092717;28;20032;-86
2022/11/07 09:03:38;;;;;;;7.10;1.35;;;21.30;99.90;;;;;;5090647;28;20016;-85
2022/11/07 09:06:05;;;;;;;5.00;0.88;;;21.20;99.90;;;;;;5092319;28;20043;-86
2022/11/07 09:08:32;;;;;;;6.85;1.10;;;21.10;99.90;;;;;;5092255;28;20413;-87
2022/11/07 09:11:03;;;;;;;;;;;21.00;99.90;;;;;;5092666;28;20112;-87
2022/11/07 09:13:33;;;;;;;4.47;0.88;;;21.10;99.90;;;;;;5092278;28;19904;-84
2022/11/07 09:16:00;;;;;;;2.65;0.75;;;21.40;99.90;;;;;;5092502;28;20021;-85
2022/11/07 09:18:27;;;;;;;3.85;0.98;;;21.50;99.90;;;;;;5092670;28;20020;-85
2022/11/07 09:20:53;;;;;;;;;;;21.30;99.90;;;;;;5091310;28;20035;-86
2022/11/07 09:23:20;;;;;;;5.65;0.85;;;21.00;99.90;;;;;;5091207;28;19904;-86
2022/11/07 09:25:46;;;;;;;5.80;1.00;;;20.70;99.90;;;;;;5091193;28;20046;-85
2022/11/07 09:28:21;;;;;;;2.60;0.90;;;20.80;99.90;;;;;;5093026;28;20048;-85
2022/11/07 09:31:01;;;;;;;5.35;1.35;;;21.00;99.90;;;;;;5090901;28;20545;-85
2022/11/07 09:33:29;;;;;;;6.15;1.10;;;21.20;99.90;;;;;;5093309;28;20024;-87
2022/11/07 09:36:00;;;;;;;4.55;0.80;;;21.20;99.90;;;;;;5093659;28;20030;-86
2022/11/07 09:38:49;;;;;;;6.43;0.90;;;21.20;99.90;;;;;;5091758;28;20416;-87
2022/11/07 09:41:36;;;;;;;3.70;0.77;;;21.30;99.90;;;;;;5092720;28;20025;-86
2022/11/07 09:44:30;;;;;;;5.47;0.90;;;21.10;99.90;;;;;;5092410;28;20028;-86
2022/11/07 09:47:14;;;;;;;7.30;1.17;;;21.10;99.90;;;;;;5091723;28;20051;-86
2022/11/07 09:49:51;;;;;;;2.92;0.70;;;21.10;99.90;;;;;;5091749;28;20093;-87
2022/11/07 09:52:42;;;;;;;4.68;0.95;;;21.30;99.90;;;;;;5090905;28;20043;-87
2022/11/07 09:55:30;;;;;;;5.90;1.00;;;21.30;99.90;;;;;;5092003;28;20062;-86
2022/11/07 09:58:05;;;;;;;3.90;0.77;;;21.10;99.90;;;;;;5091947;28;20062;-85
2022/11/07 10:00:32;;;;;;;1.80;0.70;;;21.40;99.90;;;;;;5092049;28;20456;-87
2022/11/07 10:03:03;;;;;;;2.55;0.80;;;21.40;99.90;;;;;;5090626;28;20123;-87
2022/11/07 10:05:47;;;;;;;8.10;1.02;;;21.80;99.90;;;;;;5092284;28;20028;-86
2022/11/07 10:08:39;;;;;;;3.85;1.00;;;21.60;99.90;;;;;;5091783;28;20481;-86
2022/11/07 10:11:48;;;;;;;4.68;0.70;;;21.80;99.90;;;;;;5091946;28;20063;-86
2022/11/07 10:14:48;;;;;;;3.97;0.70;;;22.20;99.90;;;;;;5090283;28;20020;-86
2022/11/07 10:17:33;;;;;;;3.15;0.85;;;22.50;99.90;;;;;;5091868;28;20040;-83
2022/11/07 10:20:02;;;;;;;5.63;1.05;;;22.60;99.90;;;;;;5085057;28;20023;-85
2022/11/07 10:22:40;;;;;;;6.10;1.30;;;22.30;99.90;;;;;;5110629;28;20089;-87
2022/11/07 10:25:18;;;;;;;5.50;1.23;;;22.30;99.90;;;;;;5091934;28;20032;-89
2022/11/07 10:27:56;;;;;;;4.85;1.10;;;22.70;99.90;;;;;;5093865;28;20436;-86
2022/11/07 10:30:28;;;;;;;4.13;0.90;;;23.00;99.90;;;;;;5093438;28;20031;-80
2022/11/07 10:33:21;;;;;;;3.17;1.10;;;23.20;99.90;;;;;;5092410;28;20035;-85
2022/11/07 10:36:04;;;;;;;6.15;1.08;;;23.10;99.90;;;;;;5093020;28;20020;-86
2022/11/07 10:38:32;;;;;;;4.75;1.52;;;23.10;99.90;;;;;;5103909;22;20524;-83
2022/11/07 10:40:59;;;;;;;6.28;2.20;;;23.20;99.90;;;;;;5113720;28;20027;-86
2022/11/07 10:43:38;;;;;;;7.15;1.38;;;23.30;99.90;;;;;;5095198;28;20036;-87
2022/11/07 10:46:40;;;;;;;4.18;1.08;;;23.50;99.90;;;;;;5124263;28;20042;-86
2022/11/07 10:49:21;;;;;;;7.22;1.15;;;23.70;99.90;;;;;;5029064;28;20045;-84
2022/11/07 10:51:48;;;;;;;2.83;1.00;;;23.70;99.90;;;;;;5028945;28;20131;-85
2022/11/07 10:54:28;;;;;;;3.28;0.98;;;23.70;99.90;;;;;;5028974;28;20112;-84
2022/11/07 10:57:15;;;;;;;7.25;1.08;;;23.90;99.90;;;;;;5010961;28;20500;-85
2022/11/07 10:59:56;;;;;;;3.25;0.80;;;23.90;99.90;;;;;;5009412;28;20072;-83
2022/11/07 11:02:38;;;;;;;7.32;0.90;;;23.80;99.90;;;;;;5012685;28;20032;-87
2022/11/07 11:05:19;;;;;;;3.22;0.70;;;23.80;99.90;;;;;;5012401;28;20092;-84
2022/11/07 11:07:54;;;;;;;8.05;1.00;;;23.70;99.90;;;;;;5013404;28;20030;-86
2022/11/07 11:10:29;;;;;;;6.47;0.90;;;23.60;99.90;;;;;;4996356;28;20030;-87
2022/11/07 11:12:55;;;;;;;4.22;0.80;;;23.60;99.90;;;;;;5013024;28;20034;-88
2022/11/07 11:15:24;;;;;;;5.82;0.85;;;23.50;99.90;;;;;;5012999;28;20022;-84
2022/11/07 11:18:02;;;;;;;3.45;1.00;;;23.70;99.90;;;;;;5012749;28;20054;-85
2022/11/07 11:21:00;;;;;;;9.27;1.10;;;23.70;99.90;;;;;;4996631;28;20026;-88
2022/11/07 11:23:30;;;;;;;3.92;0.75;;;23.80;99.90;;;;;;5012333;28;20042;-84
2022/11/07 11:26:01;;;;;;;4.70;1.10;;;23.80;99.90;;;;;;5082475;28;20115;-87
2022/11/07 11:29:09;;;;;;;3.83;1.10;;;23.60;99.90;;;;;;5115250;28;20103;-88
2022/11/07 11:31:41;;;;;;;5.72;1.13;;;23.50;99.90;;;;;;4995915;28;20030;-88
2022/11/07 11:34:19;;;;;;;6.97;1.15;;;23.30;99.90;;;;;;4997467;28;20080;-87
2022/11/07 11:37:04;;;;;;;6.35;1.27;;;23.30;99.90;;;;;;5012264;28;20056;-86
2022/11/07 11:39:49;;;;;;;5.30;1.17;;;23.60;99.90;;;;;;5011776;28;20112;-86
2022/11/07 11:42:31;;;;;;;4.57;1.30;;;23.50;99.90;;;;;;5012866;28;20034;-82
2022/11/07 11:45:06;;;;;;;7.18;1.08;;;23.50;99.90;;;;;;5012320;28;20038;-88
2022/11/07 11:47:41;;;;;;;4.65;1.13;;;23.60;99.90;;;;;;5011507;28;20025;-86
2022/11/07 11:50:17;;;;;;;5.93;1.30;;;23.80;99.90;;;;;;4995322;28;20161;-86
2022/11/07 11:52:44;;;;;;;3.38;1.10;;;23.80;99.90;;;;;;5011848;28;20022;-86
2022/11/07 11:55:18;;;;;;;6.32;1.38;;;23.80;99.90;;;;;;5014734;28;20434;-91
2022/11/07 11:58:17;;;;;;;6.63;1.30;;;23.90;99.90;;;;;;5014488;28;20017;-87
2022/11/07 12:01:02;;;;;;;5.30;1.50;;;23.80;99.90;;;;;;5014832;28;20514;-86
2022/11/07 12:03:57;;;;;;;5.72;1.60;;;23.80;99.90;;;;;;5134165;27;20023;-86
2022/11/07 12:06:37;;;;;;;7.65;1.50;;;23.70;99.90;;;;;;5134761;27;20031;-85
2022/11/07 12:09:26;;;;;;;8.98;1.63;;;23.80;99.90;;;;;;5134364;27;20059;-85
2022/11/07 12:12:18;;;;;;;11.57;1.45;;;23.80;99.90;;;;;;5134183;27;20019;-85
2022/11/07 12:15:07;;;;;;;9.20;2.03;;;23.70;99.90;;;;;;5097094;28;20023;-86
2022/11/07 12:17:52;;;;;;;6.55;1.73;;;23.60;99.90;;;;;;5113731;28;20069;-85
2022/11/07 12:20:26;;;;;;;9.98;1.73;;;23.80;99.90;;;;;;5123887;27;20482;-84
2022/11/07 12:23:11;;;;;;;8.10;1.63;;;24.00;99.90;;;;;;5134922;27;20055;-85
2022/11/07 12:26:00;;;;;;;5.93;1.75;;;23.80;99.90;;;;;;5115253;27;20035;-86
2022/11/07 12:28:35;;;;;;;6.38;1.80;;;23.70;99.90;;;;;;5116114;27;20039;-86
2022/11/07 12:31:38;;;;;;;5.18;1.40;;;23.70;99.90;;;;;;5134211;27;20029;-84
2022/11/07 12:34:39;;;;;;;5.30;1.30;;;23.80;99.90;;;;;;5081033;27;20044;-85
2022/11/07 12:37:50;;;;;;;5.05;1.60;;;23.80;99.90;;;;;;5133829;27;20360;-86
2022/11/07 12:40:33;;;;;;;9.40;1.85;;;23.90;99.90;;;;;;5122877;27;20063;-83
2022/11/07 12:43:40;;;;;;;6.57;1.80;;;23.80;99.90;;;;;;5113717;28;20114;-80
2022/11/07 12:46:18;;;;;;;4.00;1.70;;;23.90;99.90;;;;;;5113703;28;20082;-84
2022/11/07 12:48:56;;;;;;;10.38;1.73;;;23.70;99.90;;;;;;5113547;28;20030;-82
2022/11/07 12:51:44;;;;;;;6.72;1.65;;;23.80;99.90;;;;;;5112874;28;20020;-84
2022/11/07 12:54:28;;;;;;;5.90;1.30;;;23.80;99.90;;;;;;5112612;28;20038;-71
2022/11/07 12:56:56;;;;;;;8.60;1.65;;;23.80;99.90;;;;;;5113178;28;20320;-75
2022/11/07 12:59:28;;;;;;;4.10;1.20;;;23.70;99.90;;;;;;5113032;28;20054;-75
2022/11/07 13:02:03;;;;;;;9.43;1.60;;;23.80;99.90;;;;;;5113082;28;20035;-72
2022/11/07 13:04:42;;;;;;;8.27;1.65;;;23.80;99.90;;;;;;5112597;28;20045;-72
2022/11/07 13:07:32;;;;;;;9.05;1.50;;;23.80;99.90;;;;;;5113044;28;20118;-73
2022/11/07 13:10:12;;;;;;;5.97;1.50;;;23.90;99.90;;;;;;5116815;27;20027;-73
2022/11/07 13:13:31;;;;;;;9.32;1.45;;;23.80;99.90;;;;;;5093269;28;20036;-72
2022/11/07 13:16:20;;;;;;;4.25;1.40;;;23.80;99.90;;;;;;5083838;28;20085;-74
2022/11/07 13:18:46;;;;;;;4.18;1.35;;;23.80;99.90;;;;;;5093117;28;20027;-71
2022/11/07 13:21:12;;;;;;;7.03;1.35;;;23.60;99.90;;;;;;5092778;28;20085;-73